RUM5074 SBKP-SBFL
Flight info
| Callsign | RUM5074 |
|---|---|
| Flight time | 0h 53m |
| Altitude | 38000 |
| Route | OSUDO4A SOVSI DCT PUBIS PUBIS1B |
| Aircraft | A319/M-SDE3FGHIRWY/LB1 |
Departure
| Time | 2026-04-29 12:46 |
|---|---|
| Airport | Viracopos International Airport (SBKP) |
Arrival
| Time | 2026-04-29 13:39 |
|---|---|
| Airport | Hercílio Luz International Airport (SBFL) |
| Time | Latitude | Longitude | Altitude | Speed | Heading |
|---|---|---|---|---|---|
| 2026-04-29 12:31 | -23.00329 | -47.14962 | 2152 ft | 0 kts | 218° |
| 2026-04-29 12:39 | -23.00326 | -47.14960 | 2157 ft | 3 kts | 219° |
| 2026-04-29 12:40 | -23.00310 | -47.14940 | 2157 ft | 4 kts | 252° |
| 2026-04-29 12:40 | -23.00309 | -47.14913 | 2150 ft | 4 kts | 291° |
| 2026-04-29 12:40 | -23.00321 | -47.14888 | 2156 ft | 3 kts | 307° |
| 2026-04-29 12:40 | -23.00323 | -47.14886 | 2157 ft | 0 kts | 308° |
| 2026-04-29 12:43 | -23.00318 | -47.14893 | 2151 ft | 7 kts | 308° |
| 2026-04-29 12:43 | -23.00275 | -47.14955 | 2154 ft | 11 kts | 307° |
| 2026-04-29 12:43 | -23.00226 | -47.15013 | 2155 ft | 8 kts | 333° |
| 2026-04-29 12:43 | -23.00165 | -47.14990 | 2155 ft | 13 kts | 38° |
| 2026-04-29 12:44 | -23.00082 | -47.14918 | 2155 ft | 16 kts | 37° |
| 2026-04-29 12:44 | -23.00006 | -47.14836 | 2154 ft | 16 kts | 54° |
| 2026-04-29 12:44 | -22.99935 | -47.14770 | 2155 ft | 0 kts | 40° |
| 2026-04-29 12:44 | -22.99932 | -47.14766 | 2151 ft | 2 kts | 41° |
| 2026-04-29 12:45 | -22.99898 | -47.14704 | 2157 ft | 13 kts | 76° |
| 2026-04-29 12:45 | -22.99910 | -47.14611 | 2154 ft | 13 kts | 121° |
| 2026-04-29 12:45 | -22.99916 | -47.14601 | 2156 ft | 1 kts | 126° |
| 2026-04-29 12:45 | -23.00074 | -47.14381 | 2155 ft | 75 kts | 129° |
| 2026-04-29 12:46 | -23.00539 | -47.13731 | 2154 ft | 139 kts | 128° |
| 2026-04-29 12:46 | -23.01213 | -47.12781 | 2424 ft | 163 kts | 126° |
| 2026-04-29 12:46 | -23.01917 | -47.11782 | 2925 ft | 177 kts | 128° |
| 2026-04-29 12:46 | -23.02823 | -47.10764 | 3241 ft | 200 kts | 150° |
| 2026-04-29 12:47 | -23.04229 | -47.10550 | 3512 ft | 224 kts | 190° |
| 2026-04-29 12:47 | -23.05805 | -47.11091 | 3834 ft | 251 kts | 202° |
| 2026-04-29 12:47 | -23.07468 | -47.11898 | 4445 ft | 269 kts | 205° |
| 2026-04-29 12:47 | -23.09177 | -47.12770 | 5317 ft | 274 kts | 204° |
| 2026-04-29 12:48 | -23.10901 | -47.13708 | 6193 ft | 281 kts | 213° |
| 2026-04-29 12:48 | -23.12382 | -47.15129 | 7017 ft | 287 kts | 223° |
| 2026-04-29 12:48 | -23.13864 | -47.16604 | 7863 ft | 291 kts | 222° |
| 2026-04-29 12:48 | -23.15386 | -47.18070 | 8680 ft | 295 kts | 222° |
| 2026-04-29 12:49 | -23.16942 | -47.19543 | 9500 ft | 297 kts | 222° |
| 2026-04-29 12:49 | -23.18512 | -47.21018 | 10312 ft | 300 kts | 221° |
| 2026-04-29 12:49 | -23.20280 | -47.22371 | 10620 ft | 324 kts | 208° |
| 2026-04-29 12:49 | -23.22427 | -47.23274 | 11100 ft | 337 kts | 195° |
| 2026-04-29 12:50 | -23.24709 | -47.23845 | 11638 ft | 343 kts | 193° |
| 2026-04-29 12:50 | -23.27037 | -47.24450 | 12399 ft | 345 kts | 194° |
| 2026-04-29 12:50 | -23.29381 | -47.25081 | 13150 ft | 349 kts | 194° |
| 2026-04-29 12:50 | -23.31747 | -47.25731 | 13862 ft | 352 kts | 195° |
| 2026-04-29 12:51 | -23.34134 | -47.26391 | 14546 ft | 356 kts | 195° |
| 2026-04-29 12:51 | -23.36552 | -47.27057 | 15188 ft | 361 kts | 195° |
| 2026-04-29 12:51 | -23.38998 | -47.27726 | 15834 ft | 364 kts | 195° |
| 2026-04-29 12:51 | -23.41472 | -47.28397 | 16466 ft | 368 kts | 195° |
| 2026-04-29 12:52 | -23.43967 | -47.29073 | 16955 ft | 372 kts | 195° |
| 2026-04-29 12:52 | -23.46492 | -47.29758 | 17108 ft | 373 kts | 195° |
| 2026-04-29 12:52 | -23.49009 | -47.30441 | 17151 ft | 373 kts | 195° |
| 2026-04-29 12:52 | -23.51525 | -47.31123 | 17160 ft | 372 kts | 195° |
| 2026-04-29 12:53 | -23.54006 | -47.31798 | 17180 ft | 373 kts | 196° |
| 2026-04-29 12:53 | -23.56542 | -47.32488 | 17632 ft | 377 kts | 196° |
| 2026-04-29 12:53 | -23.59095 | -47.33181 | 18280 ft | 380 kts | 196° |
| 2026-04-29 12:53 | -23.61668 | -47.33881 | 18876 ft | 383 kts | 196° |
| 2026-04-29 12:54 | -23.64264 | -47.34590 | 19459 ft | 386 kts | 196° |
| 2026-04-29 12:54 | -23.66881 | -47.35305 | 20011 ft | 390 kts | 196° |
| 2026-04-29 12:54 | -23.69525 | -47.36027 | 20562 ft | 393 kts | 196° |
| 2026-04-29 12:54 | -23.72194 | -47.36753 | 21100 ft | 397 kts | 197° |
| 2026-04-29 12:55 | -23.74886 | -47.37484 | 21637 ft | 400 kts | 196° |
| 2026-04-29 12:55 | -23.77596 | -47.38218 | 22154 ft | 404 kts | 197° |
| 2026-04-29 12:55 | -23.80332 | -47.38959 | 22668 ft | 407 kts | 197° |
| 2026-04-29 12:55 | -23.83087 | -47.39708 | 23157 ft | 410 kts | 197° |
| 2026-04-29 12:56 | -23.85864 | -47.40466 | 23642 ft | 413 kts | 197° |
| 2026-04-29 12:56 | -23.88662 | -47.41231 | 24119 ft | 416 kts | 197° |
| 2026-04-29 12:56 | -23.91482 | -47.42002 | 24572 ft | 419 kts | 197° |
| 2026-04-29 12:56 | -23.94316 | -47.42780 | 25006 ft | 422 kts | 197° |
| 2026-04-29 12:57 | -23.97170 | -47.43562 | 25427 ft | 424 kts | 197° |
| 2026-04-29 12:57 | -24.00045 | -47.44348 | 25858 ft | 427 kts | 197° |
| 2026-04-29 12:57 | -24.02936 | -47.45135 | 26256 ft | 429 kts | 197° |
| 2026-04-29 12:57 | -24.05846 | -47.45926 | 26658 ft | 432 kts | 197° |
| 2026-04-29 12:58 | -24.08771 | -47.46724 | 27058 ft | 434 kts | 197° |
| 2026-04-29 12:58 | -24.11713 | -47.47531 | 27447 ft | 437 kts | 197° |
| 2026-04-29 12:58 | -24.14663 | -47.48363 | 27827 ft | 439 kts | 198° |
| 2026-04-29 12:58 | -24.17624 | -47.49216 | 28190 ft | 441 kts | 198° |
| 2026-04-29 12:59 | -24.20598 | -47.50079 | 28544 ft | 444 kts | 198° |
| 2026-04-29 12:59 | -24.23590 | -47.50946 | 28920 ft | 446 kts | 198° |
| 2026-04-29 12:59 | -24.26598 | -47.51819 | 29276 ft | 448 kts | 198° |
| 2026-04-29 12:59 | -24.29614 | -47.52694 | 29618 ft | 450 kts | 198° |
| 2026-04-29 13:00 | -24.32650 | -47.53568 | 29945 ft | 452 kts | 198° |
| 2026-04-29 13:00 | -24.35703 | -47.54443 | 30279 ft | 455 kts | 198° |
| 2026-04-29 13:00 | -24.38778 | -47.55323 | 30593 ft | 458 kts | 198° |
| 2026-04-29 13:00 | -24.41859 | -47.56204 | 30929 ft | 459 kts | 198° |
| 2026-04-29 13:01 | -24.44958 | -47.57089 | 31266 ft | 460 kts | 198° |
| 2026-04-29 13:01 | -24.48057 | -47.57981 | 31583 ft | 462 kts | 198° |
| 2026-04-29 13:01 | -24.51174 | -47.58880 | 31891 ft | 464 kts | 198° |
| 2026-04-29 13:01 | -24.54288 | -47.59776 | 32332 ft | 461 kts | 198° |
| 2026-04-29 13:02 | -24.57385 | -47.60666 | 32773 ft | 459 kts | 198° |
| 2026-04-29 13:02 | -24.60471 | -47.61557 | 33206 ft | 457 kts | 199° |
| 2026-04-29 13:02 | -24.63510 | -47.62436 | 33603 ft | 457 kts | 199° |
| 2026-04-29 13:02 | -24.66574 | -47.63313 | 34046 ft | 455 kts | 199° |
| 2026-04-29 13:03 | -24.69646 | -47.64191 | 34500 ft | 453 kts | 199° |
| 2026-04-29 13:03 | -24.72695 | -47.65066 | 34900 ft | 452 kts | 199° |
| 2026-04-29 13:03 | -24.75729 | -47.65943 | 35271 ft | 451 kts | 199° |
| 2026-04-29 13:03 | -24.78760 | -47.66820 | 35597 ft | 449 kts | 199° |
| 2026-04-29 13:04 | -24.81783 | -47.67701 | 35924 ft | 449 kts | 199° |
| 2026-04-29 13:04 | -24.84800 | -47.68583 | 36235 ft | 448 kts | 199° |
| 2026-04-29 13:04 | -24.87808 | -47.69461 | 36532 ft | 447 kts | 199° |
| 2026-04-29 13:04 | -24.90817 | -47.70336 | 36827 ft | 447 kts | 199° |
| 2026-04-29 13:05 | -24.93814 | -47.71203 | 37178 ft | 444 kts | 199° |
| 2026-04-29 13:05 | -24.96789 | -47.72060 | 37584 ft | 440 kts | 199° |
| 2026-04-29 13:05 | -24.99742 | -47.72912 | 37916 ft | 438 kts | 200° |
| 2026-04-29 13:05 | -25.02686 | -47.73766 | 38145 ft | 438 kts | 200° |
| 2026-04-29 13:06 | -25.05626 | -47.74621 | 38200 ft | 436 kts | 200° |
| 2026-04-29 13:06 | -25.11485 | -47.76329 | 38202 ft | 435 kts | 200° |
| 2026-04-29 13:07 | -25.17337 | -47.78040 | 38201 ft | 436 kts | 200° |
| 2026-04-29 13:07 | -25.23199 | -47.79736 | 38202 ft | 435 kts | 200° |
| 2026-04-29 13:08 | -25.29048 | -47.81448 | 38185 ft | 435 kts | 200° |
| 2026-04-29 13:08 | -25.34893 | -47.83161 | 38130 ft | 434 kts | 200° |
| 2026-04-29 13:09 | -25.40733 | -47.84865 | 38111 ft | 434 kts | 200° |
| 2026-04-29 13:09 | -25.46567 | -47.86568 | 37454 ft | 433 kts | 200° |
| 2026-04-29 13:09 | -25.49485 | -47.87425 | 36698 ft | 435 kts | 200° |
| 2026-04-29 13:10 | -25.52410 | -47.88284 | 36060 ft | 435 kts | 200° |
| 2026-04-29 13:10 | -25.55296 | -47.89128 | 35523 ft | 433 kts | 200° |
| 2026-04-29 13:10 | -25.58205 | -47.89980 | 34940 ft | 432 kts | 200° |
| 2026-04-29 13:10 | -25.61151 | -47.90844 | 34370 ft | 431 kts | 200° |
| 2026-04-29 13:11 | -25.64000 | -47.91681 | 33865 ft | 429 kts | 200° |
| 2026-04-29 13:11 | -25.66875 | -47.92524 | 33381 ft | 426 kts | 200° |
| 2026-04-29 13:11 | -25.69731 | -47.93359 | 32899 ft | 423 kts | 200° |
| 2026-04-29 13:11 | -25.72567 | -47.94190 | 32387 ft | 421 kts | 200° |
| 2026-04-29 13:12 | -25.75392 | -47.95018 | 31870 ft | 419 kts | 200° |
| 2026-04-29 13:12 | -25.78199 | -47.95843 | 31359 ft | 416 kts | 200° |
| 2026-04-29 13:12 | -25.80991 | -47.96668 | 30860 ft | 414 kts | 200° |
| 2026-04-29 13:12 | -25.83766 | -47.97493 | 30379 ft | 412 kts | 200° |
| 2026-04-29 13:13 | -25.86531 | -47.98310 | 29899 ft | 410 kts | 200° |
| 2026-04-29 13:13 | -25.89284 | -47.99121 | 29427 ft | 408 kts | 200° |
| 2026-04-29 13:13 | -25.92023 | -47.99929 | 28982 ft | 406 kts | 200° |
| 2026-04-29 13:13 | -25.94747 | -48.00732 | 28559 ft | 404 kts | 200° |
| 2026-04-29 13:14 | -25.97455 | -48.01525 | 28140 ft | 401 kts | 199° |
| 2026-04-29 13:14 | -26.00139 | -48.02314 | 27722 ft | 398 kts | 199° |
| 2026-04-29 13:14 | -26.02814 | -48.03106 | 27300 ft | 395 kts | 199° |
| 2026-04-29 13:14 | -26.05448 | -48.03950 | 26880 ft | 393 kts | 202° |
| 2026-04-29 13:15 | -26.08032 | -48.04884 | 26478 ft | 389 kts | 203° |
| 2026-04-29 13:15 | -26.10579 | -48.05867 | 26070 ft | 385 kts | 204° |
| 2026-04-29 13:15 | -26.13094 | -48.06859 | 25625 ft | 382 kts | 204° |
| 2026-04-29 13:15 | -26.15566 | -48.07833 | 25192 ft | 381 kts | 204° |
| 2026-04-29 13:16 | -26.18060 | -48.08794 | 24766 ft | 377 kts | 203° |
| 2026-04-29 13:16 | -26.20535 | -48.09730 | 24285 ft | 374 kts | 202° |
| 2026-04-29 13:16 | -26.22991 | -48.10653 | 23791 ft | 371 kts | 202° |
| 2026-04-29 13:16 | -26.25435 | -48.11567 | 23338 ft | 369 kts | 202° |
| 2026-04-29 13:17 | -26.27864 | -48.12472 | 22884 ft | 366 kts | 202° |
| 2026-04-29 13:17 | -26.30275 | -48.13372 | 22444 ft | 364 kts | 202° |
| 2026-04-29 13:17 | -26.32675 | -48.14271 | 22038 ft | 362 kts | 202° |
| 2026-04-29 13:17 | -26.35052 | -48.15167 | 21620 ft | 359 kts | 202° |
| 2026-04-29 13:18 | -26.37407 | -48.16052 | 21196 ft | 356 kts | 202° |
| 2026-04-29 13:18 | -26.39742 | -48.16931 | 20767 ft | 354 kts | 202° |
| 2026-04-29 13:18 | -26.42062 | -48.17805 | 20339 ft | 350 kts | 202° |
| 2026-04-29 13:18 | -26.44371 | -48.18680 | 19935 ft | 349 kts | 202° |
| 2026-04-29 13:19 | -26.46660 | -48.19544 | 19537 ft | 346 kts | 202° |
| 2026-04-29 13:19 | -26.48928 | -48.20396 | 19118 ft | 344 kts | 202° |
| 2026-04-29 13:19 | -26.51191 | -48.21250 | 18737 ft | 342 kts | 202° |
| 2026-04-29 13:19 | -26.53433 | -48.22099 | 18355 ft | 339 kts | 202° |
| 2026-04-29 13:20 | -26.55659 | -48.22938 | 17937 ft | 336 kts | 202° |
| 2026-04-29 13:20 | -26.57866 | -48.23774 | 17545 ft | 334 kts | 202° |
| 2026-04-29 13:20 | -26.60066 | -48.24612 | 17163 ft | 332 kts | 202° |
| 2026-04-29 13:20 | -26.62247 | -48.25444 | 16784 ft | 330 kts | 202° |
| 2026-04-29 13:21 | -26.64387 | -48.26256 | 16418 ft | 328 kts | 202° |
| 2026-04-29 13:21 | -26.66543 | -48.27073 | 16053 ft | 326 kts | 202° |
| 2026-04-29 13:21 | -26.68684 | -48.27885 | 15676 ft | 323 kts | 202° |
| 2026-04-29 13:21 | -26.70808 | -48.28689 | 15251 ft | 322 kts | 201° |
| 2026-04-29 13:22 | -26.72926 | -48.29488 | 14831 ft | 319 kts | 202° |
| 2026-04-29 13:22 | -26.75023 | -48.30282 | 14406 ft | 317 kts | 202° |
| 2026-04-29 13:22 | -26.77131 | -48.31078 | 14056 ft | 321 kts | 201° |
| 2026-04-29 13:22 | -26.79221 | -48.31865 | 13739 ft | 313 kts | 201° |
| 2026-04-29 13:23 | -26.81284 | -48.32647 | 13291 ft | 312 kts | 202° |
| 2026-04-29 13:23 | -26.83334 | -48.33425 | 12823 ft | 313 kts | 201° |
| 2026-04-29 13:23 | -26.85378 | -48.34203 | 12431 ft | 309 kts | 201° |
| 2026-04-29 13:23 | -26.87394 | -48.34968 | 11961 ft | 302 kts | 202° |
| 2026-04-29 13:24 | -26.89382 | -48.35729 | 11495 ft | 303 kts | 201° |
| 2026-04-29 13:24 | -26.91376 | -48.36491 | 11119 ft | 302 kts | 201° |
| 2026-04-29 13:24 | -26.93302 | -48.37380 | 10641 ft | 299 kts | 211° |
| 2026-04-29 13:24 | -26.95100 | -48.38536 | 10287 ft | 297 kts | 212° |
| 2026-04-29 13:25 | -26.96886 | -48.39684 | 9921 ft | 294 kts | 212° |
| 2026-04-29 13:25 | -27.00422 | -48.41935 | 9097 ft | 290 kts | 211° |
| 2026-04-29 13:25 | -27.02180 | -48.43056 | 8700 ft | 292 kts | 211° |
| 2026-04-29 13:26 | -27.03369 | -48.43816 | 8450 ft | 291 kts | 212° |
| 2026-04-29 13:26 | -27.05106 | -48.44925 | 8099 ft | 291 kts | 211° |
| 2026-04-29 13:26 | -27.06849 | -48.46043 | 8000 ft | 287 kts | 211° |
| 2026-04-29 13:26 | -27.08590 | -48.47165 | 8007 ft | 291 kts | 211° |
| 2026-04-29 13:27 | -27.10335 | -48.48288 | 8005 ft | 289 kts | 211° |
| 2026-04-29 13:27 | -27.12081 | -48.49408 | 8015 ft | 289 kts | 211° |
| 2026-04-29 13:27 | -27.13825 | -48.50530 | 8009 ft | 289 kts | 211° |
| 2026-04-29 13:27 | -27.15567 | -48.51651 | 8001 ft | 288 kts | 211° |
| 2026-04-29 13:28 | -27.17302 | -48.52759 | 7996 ft | 288 kts | 211° |
| 2026-04-29 13:28 | -27.19040 | -48.53867 | 8011 ft | 287 kts | 211° |
| 2026-04-29 13:28 | -27.20780 | -48.54985 | 8010 ft | 287 kts | 211° |
| 2026-04-29 13:28 | -27.22606 | -48.55878 | 7865 ft | 287 kts | 199° |
| 2026-04-29 13:29 | -27.24501 | -48.56551 | 7403 ft | 285 kts | 199° |
| 2026-04-29 13:29 | -27.26399 | -48.57219 | 7010 ft | 285 kts | 198° |
| 2026-04-29 13:29 | -27.28289 | -48.57883 | 6655 ft | 284 kts | 198° |
| 2026-04-29 13:29 | -27.30168 | -48.58543 | 6280 ft | 282 kts | 198° |
| 2026-04-29 13:30 | -27.32036 | -48.59201 | 5919 ft | 281 kts | 198° |
| 2026-04-29 13:30 | -27.33892 | -48.59857 | 5547 ft | 279 kts | 198° |
| 2026-04-29 13:30 | -27.35741 | -48.60510 | 5143 ft | 277 kts | 198° |
| 2026-04-29 13:30 | -27.37568 | -48.61157 | 4997 ft | 275 kts | 198° |
| 2026-04-29 13:31 | -27.39398 | -48.61808 | 5006 ft | 276 kts | 198° |
| 2026-04-29 13:31 | -27.41231 | -48.62459 | 5007 ft | 277 kts | 198° |
| 2026-04-29 13:31 | -27.43040 | -48.63101 | 5000 ft | 264 kts | 198° |
| 2026-04-29 13:31 | -27.44709 | -48.63692 | 5002 ft | 246 kts | 198° |
| 2026-04-29 13:32 | -27.46280 | -48.64250 | 5002 ft | 228 kts | 198° |
| 2026-04-29 13:32 | -27.47739 | -48.64769 | 5002 ft | 212 kts | 198° |
| 2026-04-29 13:32 | -27.49100 | -48.65267 | 5032 ft | 197 kts | 202° |
| 2026-04-29 13:32 | -27.50271 | -48.65963 | 4924 ft | 185 kts | 213° |
| 2026-04-29 13:33 | -27.51338 | -48.66692 | 4794 ft | 173 kts | 212° |
| 2026-04-29 13:33 | -27.52329 | -48.67364 | 4664 ft | 160 kts | 212° |
| 2026-04-29 13:33 | -27.53259 | -48.67996 | 4420 ft | 153 kts | 212° |
| 2026-04-29 13:33 | -27.54140 | -48.68597 | 4170 ft | 144 kts | 212° |
| 2026-04-29 13:34 | -27.54987 | -48.69171 | 3837 ft | 140 kts | 211° |
| 2026-04-29 13:34 | -27.55818 | -48.69737 | 3457 ft | 140 kts | 212° |
| 2026-04-29 13:34 | -27.56696 | -48.70165 | 3080 ft | 138 kts | 192° |
| 2026-04-29 13:34 | -27.57629 | -48.70158 | 3059 ft | 133 kts | 170° |
| 2026-04-29 13:35 | -27.58519 | -48.69753 | 2986 ft | 143 kts | 143° |
| 2026-04-29 13:35 | -27.59119 | -48.68911 | 2838 ft | 138 kts | 119° |
| 2026-04-29 13:35 | -27.59614 | -48.68001 | 2637 ft | 136 kts | 120° |
| 2026-04-29 13:35 | -27.60101 | -48.67102 | 2460 ft | 133 kts | 121° |
| 2026-04-29 13:36 | -27.60582 | -48.66213 | 2297 ft | 133 kts | 121° |
| 2026-04-29 13:36 | -27.61062 | -48.65324 | 2109 ft | 133 kts | 122° |
| 2026-04-29 13:36 | -27.61541 | -48.64439 | 1931 ft | 132 kts | 122° |
| 2026-04-29 13:36 | -27.62017 | -48.63559 | 1751 ft | 132 kts | 122° |
| 2026-04-29 13:37 | -27.62494 | -48.62676 | 1580 ft | 132 kts | 123° |
| 2026-04-29 13:37 | -27.62970 | -48.61795 | 1409 ft | 134 kts | 122° |
| 2026-04-29 13:37 | -27.63461 | -48.60885 | 1230 ft | 137 kts | 120° |
| 2026-04-29 13:37 | -27.63957 | -48.59966 | 1047 ft | 137 kts | 120° |
| 2026-04-29 13:38 | -27.64453 | -48.59047 | 860 ft | 137 kts | 120° |
| 2026-04-29 13:38 | -27.64947 | -48.58134 | 680 ft | 136 kts | 120° |
| 2026-04-29 13:38 | -27.65439 | -48.57223 | 502 ft | 135 kts | 120° |
| 2026-04-29 13:38 | -27.65926 | -48.56321 | 320 ft | 135 kts | 121° |
| 2026-04-29 13:39 | -27.66412 | -48.55419 | 142 ft | 134 kts | 120° |
| 2026-04-29 13:39 | -27.66888 | -48.54534 | 31 ft | 123 kts | 121° |
| 2026-04-29 13:39 | -27.67230 | -48.53898 | 23 ft | 57 kts | 121° |
| 2026-04-29 13:39 | -27.67362 | -48.53666 | 25 ft | 10 kts | 123° |
| 2026-04-29 13:40 | -27.67404 | -48.53584 | 23 ft | 29 kts | 120° |
| 2026-04-29 13:40 | -27.67535 | -48.53416 | 30 ft | 21 kts | 147° |
| 2026-04-29 13:40 | -27.67563 | -48.53392 | 27 ft | 0 kts | 134° |
| 2026-04-29 13:40 | -27.67552 | -48.53340 | 27 ft | 15 kts | 25° |
| 2026-04-29 13:41 | -27.67482 | -48.53426 | 27 ft | 17 kts | 298° |
| 2026-04-29 13:41 | -27.67417 | -48.53555 | 23 ft | 20 kts | 302° |
| 2026-04-29 13:41 | -27.67343 | -48.53688 | 25 ft | 21 kts | 302° |
| 2026-04-29 13:41 | -27.67266 | -48.53836 | 22 ft | 25 kts | 300° |
| 2026-04-29 13:42 | -27.67169 | -48.54008 | 26 ft | 26 kts | 305° |
| 2026-04-29 13:42 | -27.67076 | -48.54183 | 28 ft | 25 kts | 298° |
| 2026-04-29 13:42 | -27.66991 | -48.54349 | 31 ft | 24 kts | 300° |
| 2026-04-29 13:42 | -27.66948 | -48.54494 | 30 ft | 13 kts | 234° |
| 2026-04-29 13:43 | -27.67005 | -48.54538 | 27 ft | 0 kts | 211° |
| 2026-04-29 13:43 | -27.67006 | -48.54539 | 27 ft | 1 kts | 211° |
| 2026-04-29 13:43 | -27.67058 | -48.54574 | 28 ft | 15 kts | 211° |
| 2026-04-29 13:44 | -27.67149 | -48.54620 | 29 ft | 13 kts | 184° |
| 2026-04-29 13:44 | -27.67213 | -48.54575 | 29 ft | 10 kts | 121° |
| 2026-04-29 13:44 | -27.67241 | -48.54530 | 29 ft | 6 kts | 152° |
| 2026-04-29 13:44 | -27.67260 | -48.54530 | 29 ft | 3 kts | 191° |
| 2026-04-29 13:45 | -27.67280 | -48.54540 | 29 ft | 0 kts | 206° |
| 2026-04-29 13:45 | -27.67285 | -48.54543 | 29 ft | 0 kts | 209° |